Latest Weather Observations for Taree Airport

IDN60801

Issued at 8:04 am EDT Saturday 31 January 2015 (issued every 30 minutes, with the page automatically refreshed every 10 minutes)

About weather observations | Map of weather stations | Latest weather observations for NSW | Other Formats
Station Details ID: 060141 Name: TAREE AIRPORT AWS Lat: -31.89 Lon: 152.51 Height: 8.0 m
Data from the previous 72 hours. | See also: Recent months at Taree Airport
Date/Time
EDT
Temp
°C
App
Temp
°C
Dew
Point
Rel
Hum
%
Delta-T
°C
Wind Press
QNH
hPa
Press
MSL
hPa
Rain
since 9 am
mm
Dir
 
Spd
km/h
Gust
km/h
Spd
kts
Gust
kts
31/08:00am 18.4 17.6 14.1 76 2.5 W 11 15 6 8 1007.5 1007.4 0.0
31/07:30am 17.6 17.3 14.3 81 1.9 W 9 13 5 7 1007.3 1007.2 0.0
31/07:00am 16.1 15.3 14.1 88 1.1 W 11 13 6 7 1007.0 1006.9 0.0
31/06:30am 15.9 14.8 14.4 91 0.9 WSW 13 15 7 8 1006.8 1006.7 0.0
31/06:00am 15.4 16.6 13.9 91 0.8 CALM 0 0 0 0 1006.5 1006.4 0.0
31/05:30am 15.1 15.0 14.0 93 0.6 WNW 7 9 4 5 1006.3 1006.2 0.0
31/05:00am 14.6 14.4 13.0 90 0.9 NW 6 7 3 4 1006.1 1006.0 0.0
31/04:30am 15.7 15.3 14.1 90 0.9 WSW 9 13 5 7 1005.9 1005.8 0.0
31/04:00am 15.5 14.8 14.2 92 0.7 WSW 11 17 6 9 1006.1 1006.0 0.0
31/03:30am 14.7 15.8 13.6 93 0.6 CALM 0 0 0 0 1005.9 1005.8 0.0
31/03:00am 15.5 15.4 14.0 91 0.8 NNW 7 9 4 5 1006.0 1005.9 0.0
31/02:30am 16.1 16.0 13.9 87 1.2 NW 7 9 4 5 1006.1 1006.0 0.0
31/02:00am 16.7 16.9 14.2 85 1.4 WSW 6 7 3 4 1006.3 1006.2 0.0
31/01:30am 16.9 17.5 15.2 90 1.0 SW 6 7 3 4 1006.4 1006.3 0.0
31/01:00am 16.9 17.2 14.9 88 1.2 SW 7 9 4 5 1006.7 1006.6 0.0
31/12:30am 17.3 17.6 15.1 87 1.3 WSW 7 9 4 5 1006.9 1006.8 0.0
31/12:00am 17.4 18.8 14.5 83 1.7 CALM 0 0 0 0 1006.9 1006.8 0.0
 
Date/Time
EDT
Temp
°C
App
Temp
°C
Dew
Point
Rel
Hum
%
Delta-T
°C
Wind Press
QNH
hPa
Press
MSL
hPa
Rain
since 9 am
mm
Dir
 
Spd
km/h
Gust
km/h
Spd
kts
Gust
kts
30/11:30pm 17.1 18.3 13.8 81 1.9 CALM 0 0 0 0 1007.3 1007.2 0.0
30/11:00pm 17.6 18.7 13.5 77 2.3 CALM 0 0 0 0 1007.5 1007.4 0.0
30/10:30pm 18.4 19.6 13.7 74 2.7 CALM 0 0 0 0 1007.5 1007.4 0.0
30/10:00pm 18.6 19.5 13.9 74 2.7 NE 2 7 1 4 1007.5 1007.4 0.0
30/09:30pm 18.4 17.9 13.7 74 2.7 NE 9 11 5 6 1007.4 1007.3 0.0
30/09:00pm 19.6 19.1 13.8 69 3.3 ENE 9 11 5 6 1007.2 1007.1 0.0
30/08:30pm 20.4 18.6 13.4 64 4.0 ENE 15 20 8 11 1006.9 1006.8 0.0
30/08:00pm 20.6 19.1 13.1 62 4.3 E 13 17 7 9 1006.7 1006.6 0.0
30/07:30pm 21.7 19.9 13.3 59 4.8 E 15 20 8 11 1006.2 1006.1 0.0
30/07:00pm 22.6 20.3 13.1 55 5.5 E 17 24 9 13 1005.9 1005.8 0.0
30/06:30pm 23.5 21.3 13.4 53 5.9 E 17 22 9 12 1005.5 1005.4 0.0
30/06:00pm 23.9 21.1 12.5 49 6.5 ENE 19 26 10 14 1005.3 1005.2 0.0
30/05:30pm 24.2 21.9 13.1 50 6.4 E 17 26 9 14 1005.3 1005.2 0.0
30/05:00pm 23.6 20.7 12.9 51 6.2 E 20 26 11 14 1005.3 1005.2 0.0
30/04:30pm 24.3 21.3 12.6 48 6.7 E 20 28 11 15 1005.6 1005.5 0.0
30/04:00pm 24.3 21.8 13.5 51 6.3 E 19 30 10 16 1005.5 1005.4 0.0
30/03:30pm 24.9 22.8 13.5 49 6.7 ESE 17 22 9 12 1005.3 1005.2 0.0
30/03:00pm 24.5 21.7 12.5 47 6.9 SE 19 28 10 15 1005.5 1005.4 0.0
30/02:30pm 24.8 21.5 11.7 44 7.4 ESE 20 26 11 14 1005.7 1005.6 0.0
30/02:00pm 25.9 23.9 12.7 44 7.7 SE 15 22 8 12 1005.8 1005.7 0.0
30/01:30pm 26.0 24.7 9.8 36 8.9 WSW 7 19 4 10 1006.4 1006.3 0.0
30/01:00pm 25.2 25.4 11.7 43 7.7 S 2 7 1 4 1006.7 1006.6 0.0
30/12:30pm 24.1 22.3 9.3 39 8.0 SW 9 19 5 10 1007.1 1007.0 0.0
30/12:00pm 23.7 22.2 10.7 44 7.2 WSW 9 13 5 7 1007.4 1007.3 0.0
30/11:30am 23.2 21.0 10.9 46 6.8 SW 13 20 7 11 1007.9 1007.8 0.0
30/11:00am 22.3 19.0 9.5 44 6.9 WSW 17 26 9 14 1008.3 1008.2 0.0
30/10:30am 21.8 19.3 9.7 46 6.5 WSW 13 19 7 10 1008.8 1008.7 0.0
30/10:00am 20.7 18.6 9.9 50 5.8 WSW 11 17 6 9 1009.1 1009.0 0.0
30/09:30am 19.8 16.9 9.7 52 5.4 W 15 22 8 12 1009.4 1009.3 0.0
30/09:00am 19.1 16.2 9.6 54 5.0 WSW 15 22 8 12 1009.6 1009.5 0.0
30/08:30am 18.2 15.8 10.1 59 4.3 W 13 20 7 11 1009.6 1009.5 0.0
30/08:00am 17.1 15.1 11.6 70 3.0 WNW 13 19 7 10 1009.6 1009.5 0.0
30/07:30am 15.9 13.9 11.5 75 2.4 W 13 15 7 8 1009.4 1009.3 0.0
30/07:00am 15.1 13.5 11.5 79 1.9 NW 11 13 6 7 1009.2 1009.1 0.0
30/06:30am 15.0 13.7 11.2 78 2.0 W 9 11 5 6 1009.1 1009.0 0.0
30/06:00am 15.1 13.4 11.1 77 2.1 WNW 11 15 6 8 1008.9 1008.8 0.0
30/05:30am 15.1 13.0 11.3 78 2.0 NW 13 15 7 8 1008.8 1008.7 0.0
30/05:00am 15.1 13.5 11.5 79 1.9 NW 11 15 6 8 1008.7 1008.6 0.0
30/04:30am 15.1 13.1 11.5 79 1.9 NW 13 15 7 8 1008.7 1008.6 0.0
30/04:00am 15.1 13.9 11.5 79 1.9 NW 9 11 5 6 1008.8 1008.7 0.0
30/03:30am 14.6 13.0 11.7 83 1.6 NW 11 13 6 7 1009.0 1008.9 0.0
30/03:00am 13.9 13.1 11.2 84 1.4 N 6 9 3 5 1009.3 1009.2 0.0
30/02:30am 14.1 13.2 11.4 84 1.4 NNE 7 9 4 5 1009.6 1009.5 0.0
30/02:00am 14.8 14.0 11.6 81 1.7 N 7 9 4 5 1009.9 1009.8 0.0
30/01:30am 14.6 13.8 11.7 83 1.6 NNW 7 11 4 6 1010.2 1010.1 0.0
30/01:00am 15.1 14.3 11.7 80 1.8 NNW 7 9 4 5 1010.3 1010.2 0.0
30/12:30am 16.1 14.5 11.7 75 2.4 NW 11 11 6 6 1010.6 1010.5 0.0
30/12:00am 16.1 14.5 11.7 75 2.4 NW 11 11 6 6 1010.8 1010.7 0.0
 
Date/Time
EDT
Temp
°C
App
Temp
°C
Dew
Point
Rel
Hum
%
Delta-T
°C
Wind Press
QNH
hPa
Press
MSL
hPa
Rain
since 9 am
mm
Dir
 
Spd
km/h
Gust
km/h
Spd
kts
Gust
kts
29/11:30pm 17.4 16.1 11.4 68 3.3 NW 9 11 5 6 1010.9 1010.8 0.0
29/11:00pm 17.8 16.6 11.6 67 3.4 WNW 9 13 5 7 1011.0 1010.9 0.0
29/10:30pm 18.0 16.4 11.6 66 3.5 W 11 13 6 7 1011.0 1010.9 0.0
29/10:00pm 18.9 17.3 11.7 63 4.0 W 11 13 6 7 1011.1 1011.0 0.0
29/09:30pm 19.4 17.5 11.7 61 4.2 WSW 13 20 7 11 1010.9 1010.8 0.0
29/09:00pm 19.1 17.2 11.9 63 4.0 SW 13 19 7 10 1010.7 1010.6 0.0
29/08:30pm 19.7 17.9 12.0 61 4.3 SSW 13 17 7 9 1010.4 1010.3 0.0
29/08:00pm 20.1 18.0 11.3 57 4.8 SSW 13 15 7 8 1010.1 1010.0 0.0
29/07:30pm 21.2 19.1 11.2 53 5.5 SSW 13 20 7 11 1009.7 1009.6 0.0
29/07:00pm 22.2 18.8 10.7 48 6.3 S 19 26 10 14 1009.4 1009.3 0.0
29/06:30pm 22.8 18.3 9.9 44 7.0 SSW 24 37 13 20 1008.9 1008.8 0.0
29/06:00pm 23.4 19.3 11.5 47 6.7 S 24 33 13 18 1008.7 1008.6 0.0
29/05:30pm 23.7 19.2 11.4 46 6.9 SSW 26 35 14 19 1008.6 1008.5 0.0
29/05:00pm 23.8 19.6 12.4 48 6.5 S 26 35 14 19 1008.6 1008.5 0.0
29/04:30pm 23.8 20.6 13.1 51 6.2 SSE 22 37 12 20 1008.5 1008.4 0.0
29/04:00pm 23.7 20.9 13.3 52 6.0 SSE 20 30 11 16 1008.7 1008.6 0.0
29/03:30pm 24.9 21.3 10.0 39 8.2 SSW 19 32 10 17 1008.7 1008.6 0.0
29/03:15pm 23.6 19.4 11.0 45 7.0 SW 24 48 13 26 1008.7 1008.6 0.0
29/03:00pm 25.5 21.9 11.7 42 7.9 SW 22 33 12 18 1008.9 1008.8 0.0
29/02:30pm 23.3 19.2 10.0 43 7.3 SW 22 30 12 16 1009.2 1009.1 0.0
29/02:00pm 24.7 21.3 11.3 43 7.6 SW 20 35 11 19 1009.5 1009.4 0.0
29/01:30pm 23.0 18.7 10.8 46 6.8 SW 24 35 13 19 1009.8 1009.7 0.0
29/01:00pm 22.9 19.2 11.6 49 6.3 WSW 22 35 12 19 1010.1 1010.0 0.0
29/12:30pm 22.4 18.3 12.6 54 5.6 WSW 26 35 14 19 1010.4 1010.3 0.0
29/12:00pm 21.8 17.4 12.9 57 5.1 SW 28 35 15 19 1010.6 1010.5 0.0
29/11:30am 22.5 18.9 14.1 59 4.9 SW 26 33 14 18 1010.7 1010.6 0.0
29/11:00am 22.0 19.5 14.1 61 4.6 SW 20 32 11 17 1010.9 1010.8 0.0
29/10:30am 21.2 18.3 13.9 63 4.2 SW 22 32 12 17 1011.1 1011.0 0.0
29/10:00am 21.0 17.2 13.7 63 4.2 WSW 26 35 14 19 1011.2 1011.1 0.0
29/09:30am 20.2 17.1 13.4 65 3.9 WSW 22 39 12 21 1011.2 1011.1 0.0
29/09:00am 20.1 17.1 13.8 67 3.6 WSW 22 32 12 17 1011.2 1011.1 6.2
29/08:30am 19.6 17.1 14.2 71 3.1 WSW 20 30 11 16 1011.1 1011.0 6.2
29/08:00am 18.8 17.1 13.6 72 3.0 W 15 24 8 13 1010.9 1010.8 6.2
29/07:30am 18.2 15.8 13.7 75 2.6 W 19 28 10 15 1010.5 1010.4 6.2
29/07:00am 17.8 15.9 14.1 79 2.1 WSW 17 26 9 14 1010.2 1010.1 6.2
29/06:30am 17.3 15.3 14.0 81 1.9 WSW 17 24 9 13 1010.0 1009.9 6.2
29/06:00am 17.7 16.2 14.2 80 2.0 W 15 24 8 13 1009.3 1009.2 6.2
29/05:30am 17.5 16.1 14.4 82 1.8 W 15 19 8 10 1009.3 1009.2 6.2
29/05:00am 17.4 16.4 14.5 83 1.7 W 13 19 7 10 1009.3 1009.2 6.2
29/04:30am 17.6 16.6 14.7 83 1.7 W 13 19 7 10 1009.2 1009.1 6.2
29/04:00am 17.6 16.7 14.9 84 1.6 W 13 19 7 10 1009.3 1009.2 6.2
29/03:30am 17.6 16.0 15.0 85 1.5 W 17 22 9 12 1009.7 1009.6 6.2
29/03:00am 17.5 15.9 15.0 85 1.5 WSW 17 26 9 14 1009.8 1009.7 6.2
29/02:30am 17.8 16.5 14.9 83 1.7 W 15 24 8 13 1010.0 1009.9 6.2
29/02:00am 18.2 16.6 14.9 81 1.9 WSW 17 26 9 14 1010.4 1010.3 6.2
29/01:30am 18.3 16.1 14.8 80 2.0 SW 20 32 11 17 1010.7 1010.6 6.2
29/01:00am 18.4 17.4 14.7 79 2.1 W 13 15 7 8 1010.9 1010.8 6.2
29/12:30am 18.3 16.9 14.4 78 2.2 W 15 20 8 11 1011.0 1010.9 6.2
29/12:00am 18.1 16.8 13.6 75 2.6 WSW 13 19 7 10 1011.3 1011.2 6.2
 
Date/Time
EDT
Temp
°C
App
Temp
°C
Dew
Point
Rel
Hum
%
Delta-T
°C
Wind Press
QNH
hPa
Press
MSL
hPa
Rain
since 9 am
mm
Dir
 
Spd
km/h
Gust
km/h
Spd
kts
Gust
kts
28/11:30pm 18.3 17.4 13.6 74 2.7 W 11 15 6 8 1011.4 1011.3 6.2
28/11:00pm 18.6 17.5 13.0 70 3.2 WSW 11 15 6 8 1011.5 1011.4 6.2
28/10:30pm 19.3 17.1 13.2 68 3.5 SW 17 24 9 13 1011.7 1011.6 6.2
28/10:00pm 19.6 18.4 12.8 65 3.8 WSW 11 15 6 8 1011.5 1011.4 6.2
28/09:30pm 19.7 18.5 12.7 64 3.9 WSW 11 15 6 8 1011.4 1011.3 6.2
28/09:00pm 20.1 18.7 13.3 65 3.9 WSW 13 17 7 9 1011.2 1011.1 6.2
28/08:30pm 20.4 18.6 13.4 64 4.0 SW 15 20 8 11 1011.0 1010.9 6.2
28/08:00pm 20.6 18.8 13.3 63 4.2 SW 15 20 8 11 1011.0 1010.9 6.2
28/07:30pm 21.0 18.4 13.7 63 4.2 SSW 20 30 11 16 1010.9 1010.8 6.2
28/07:00pm 21.5 18.5 13.7 61 4.5 SSW 22 32 12 17 1010.4 1010.3 6.2
28/06:30pm 21.8 18.3 13.4 59 4.8 SSW 24 33 13 18 1010.3 1010.2 6.2
28/06:00pm 22.1 18.4 14.0 60 4.7 SW 26 37 14 20 1010.0 1009.9 6.2
28/05:30pm 22.6 19.9 14.7 61 4.7 SSW 22 28 12 15 1009.9 1009.8 6.2
28/05:00pm 23.2 19.8 14.7 58 5.0 SSW 26 37 14 20 1009.9 1009.8 6.2
28/04:30pm 23.3 20.6 14.6 58 5.1 SSW 22 28 12 15 1010.2 1010.1 6.2
28/04:00pm 22.6 21.5 15.4 64 4.3 SW 15 24 8 13 1010.1 1010.0 6.2
28/03:30pm 21.4 20.9 15.9 71 3.3 SSW 13 19 7 10 1010.4 1010.3 6.2
28/03:00pm 20.9 17.8 15.7 72 3.1 SW 26 35 14 19 1010.4 1010.3 6.2
28/02:48pm 21.2 17.8 15.7 71 3.3 SSW 28 39 15 21 1010.5 1010.4 6.2
28/02:30pm 22.3 22.5 16.8 71 3.4 SSE 11 17 6 9 1010.4 1010.3 6.2
28/02:00pm 22.1 21.2 16.8 72 3.2 SW 17 26 9 14 1010.4 1010.3 6.2
28/01:30pm 21.6 22.1 18.4 82 2.0 WSW 13 19 7 10 1010.6 1010.5 6.2
28/01:00pm 20.1 20.9 18.2 89 1.2 WSW 11 17 6 9 1010.8 1010.7 6.2
28/12:30pm 19.7 20.6 18.5 93 0.7 W 11 15 6 8 1010.8 1010.7 6.2
28/12:00pm 19.2 19.5 18.0 93 0.7 WSW 13 17 7 9 1010.9 1010.8 6.0
28/11:30am 18.8 19.4 17.6 93 0.7 SW 11 13 6 7 1010.9 1010.8 4.6
28/11:00am 20.1 21.0 18.4 90 1.1 W 11 13 6 7 1010.9 1010.8 1.6
28/10:30am 19.6 21.2 18.3 92 0.8 SW 7 13 4 7 1010.9 1010.8 1.6
28/10:23am 19.4 20.5 18.1 92 0.8 SW 9 13 5 7 1010.8 1010.7 1.6
28/10:04am 19.2 20.9 18.5 96 0.4 W 7 11 4 6 1010.8 1010.7 1.6
28/10:00am 18.9 20.4 18.1 95 0.5 W 7 11 4 6 1010.8 1010.7 1.6
28/09:30am 18.7 19.8 17.9 95 0.5 WSW 9 13 5 7 1010.7 1010.6 0.4
28/09:00am 18.8 19.7 18.3 97 0.3 WSW 11 15 6 8 1010.5 1010.4 20.6
28/08:30am 18.3 19.4 18.0 98 0.2 WSW 9 11 5 6 1010.3 1010.2 20.6

Other Formats:

Comma delimited format used in spreadsheet applications
http://www.bom.gov.au/fwo/IDN60801/IDN60801.95784.axf

JavaScript Object Notation format (JSON) in row-major order
http://www.bom.gov.au/fwo/IDN60801/IDN60801.95784.json